createdAt,value
2018-10-02T00:01:23.097Z,89.70
2018-10-02T00:03:51.524Z,89.10
2018-10-02T00:06:19.900Z,89.20
2018-10-02T00:08:48.220Z,89.10
2018-10-02T00:11:21.972Z,89.20
2018-10-02T00:13:55.633Z,89.30
2018-10-02T00:16:24.109Z,89.10
2018-10-02T00:18:52.511Z,88.70
2018-10-02T00:21:20.896Z,89.30
2018-10-02T00:23:49.301Z,89.30
2018-10-02T00:26:17.709Z,89.10
2018-10-02T00:28:46.001Z,88.90
2018-10-02T00:31:14.351Z,89.20
2018-10-02T00:33:42.748Z,89.00
2018-10-02T00:36:11.155Z,89.20
2018-10-02T00:38:39.528Z,89.40
2018-10-02T00:41:07.916Z,89.40
2018-10-02T00:43:36.264Z,89.20
2018-10-02T00:46:04.670Z,89.30
2018-10-02T00:48:33.019Z,89.60
2018-10-02T00:51:01.288Z,89.70
2018-10-02T00:53:29.662Z,89.70
2018-10-02T00:55:58.008Z,89.50
2018-10-02T00:58:26.367Z,90.00
2018-10-02T01:00:54.808Z,89.60
2018-10-02T01:03:23.192Z,89.60
2018-10-02T01:05:51.563Z,89.70
2018-10-02T01:08:19.987Z,90.00
2018-10-02T01:10:48.363Z,90.00
2018-10-02T01:13:17.043Z,89.50
2018-10-02T01:15:45.400Z,89.70
2018-10-02T01:18:13.864Z,90.10
2018-10-02T01:20:42.256Z,90.00
2018-10-02T01:23:10.655Z,90.00
2018-10-02T01:25:39.049Z,89.60
2018-10-02T01:28:07.431Z,89.90
2018-10-02T01:30:35.831Z,90.00
2018-10-02T01:33:04.207Z,89.70
2018-10-02T01:35:32.568Z,88.90
2018-10-02T01:38:00.939Z,88.90
2018-10-02T01:40:29.380Z,89.60
2018-10-02T01:42:57.742Z,88.90
2018-10-02T01:45:26.385Z,89.50
2018-10-02T01:47:54.782Z,89.70
2018-10-02T01:50:23.221Z,89.70
2018-10-02T01:52:51.515Z,89.60
2018-10-02T01:55:19.931Z,89.80
2018-10-02T01:57:48.211Z,89.60
2018-10-02T02:00:16.592Z,89.70
2018-10-02T02:02:45.044Z,88.40
2018-10-02T02:05:13.380Z,89.20
2018-10-02T02:07:41.788Z,89.10
2018-10-02T02:10:10.166Z,90.00
2018-10-02T02:12:38.564Z,90.00
2018-10-02T02:15:06.929Z,90.00
2018-10-02T02:17:35.317Z,90.00
2018-10-02T02:20:03.917Z,90.00
2018-10-02T02:22:32.283Z,89.80
2018-10-02T02:25:00.683Z,90.20
2018-10-02T02:27:29.054Z,90.00
2018-10-02T02:29:57.448Z,89.90
2018-10-02T02:32:25.776Z,89.30
2018-10-02T02:34:54.132Z,89.70
2018-10-02T02:37:22.532Z,89.80
2018-10-02T02:39:50.919Z,90.00
2018-10-02T02:42:19.299Z,90.00
2018-10-02T02:44:47.680Z,90.00
2018-10-02T02:47:21.418Z,89.80
2018-10-02T02:49:55.149Z,89.90
2018-10-02T02:52:25.338Z,90.00
2018-10-02T02:54:53.675Z,90.10
2018-10-02T02:57:22.056Z,90.10
2018-10-02T02:59:50.436Z,90.10
2018-10-02T03:02:18.819Z,90.20
2018-10-02T03:04:47.122Z,90.20
2018-10-02T03:07:15.447Z,90.30
2018-10-02T03:09:43.788Z,90.00
2018-10-02T03:12:12.259Z,89.70
2018-10-02T03:14:47.404Z,89.70
2018-10-02T03:17:15.827Z,90.00
2018-10-02T03:19:44.215Z,89.50
2018-10-02T03:22:12.668Z,89.60
2018-10-02T03:24:41.027Z,89.60
2018-10-02T03:27:09.446Z,90.00
2018-10-02T03:29:37.840Z,90.00
2018-10-02T03:32:06.912Z,90.00
2018-10-02T03:34:35.289Z,90.20
2018-10-02T03:37:03.707Z,90.10
2018-10-02T03:39:32.110Z,89.80
2018-10-02T03:42:00.473Z,89.90
2018-10-02T03:44:28.884Z,89.80
2018-10-02T03:46:57.275Z,89.90
2018-10-02T03:49:25.650Z,90.00
2018-10-02T03:51:53.990Z,89.50
2018-10-02T03:54:22.395Z,89.60
2018-10-02T03:56:50.861Z,89.70
2018-10-02T03:59:19.187Z,89.70
2018-10-02T04:01:47.604Z,89.90
2018-10-02T04:04:15.987Z,90.00
2018-10-02T04:06:44.350Z,90.00
2018-10-02T04:09:12.705Z,89.50
2018-10-02T04:11:41.085Z,90.30
2018-10-02T04:14:09.544Z,90.20
2018-10-02T04:16:38.288Z,90.30
2018-10-02T04:19:06.556Z,90.20
2018-10-02T04:21:35.876Z,90.30
2018-10-02T04:24:05.508Z,90.00
2018-10-02T04:26:35.086Z,90.00
2018-10-02T04:29:04.060Z,90.00
2018-10-02T04:31:33.706Z,90.00
2018-10-02T04:34:02.130Z,90.00
2018-10-02T04:36:30.547Z,90.00
2018-10-02T04:38:58.988Z,90.00
2018-10-02T04:41:27.414Z,89.80
2018-10-02T04:43:55.849Z,89.50
2018-10-02T04:46:24.234Z,90.00
2018-10-02T04:48:52.683Z,90.10
2018-10-02T04:51:21.091Z,90.10
2018-10-02T04:53:49.453Z,90.10
2018-10-02T04:56:17.842Z,89.80
2018-10-02T04:58:46.191Z,89.80
2018-10-02T05:01:14.619Z,89.50
2018-10-02T05:03:42.955Z,89.50
2018-10-02T05:06:11.264Z,89.60
2018-10-02T05:08:39.642Z,89.70
2018-10-02T05:11:07.808Z,89.70
2018-10-02T05:13:36.157Z,89.20
2018-10-02T05:16:04.526Z,88.90
2018-10-02T05:18:32.887Z,88.70
2018-10-02T05:21:01.312Z,88.90
2018-10-02T05:23:29.773Z,89.10
2018-10-02T05:25:58.080Z,89.10
2018-10-02T05:28:26.440Z,89.10
2018-10-02T05:30:54.828Z,89.10
2018-10-02T05:33:23.184Z,88.20
2018-10-02T05:35:51.568Z,88.10
2018-10-02T05:38:19.861Z,87.60
2018-10-02T05:40:48.291Z,87.50
2018-10-02T05:43:16.674Z,87.20
2018-10-02T05:45:45.017Z,87.40
2018-10-02T05:48:13.296Z,87.40
2018-10-02T05:50:41.822Z,86.90
2018-10-02T05:53:10.154Z,86.80
2018-10-02T05:55:38.592Z,86.20
2018-10-02T05:58:06.978Z,85.00
2018-10-02T06:00:35.428Z,82.80
2018-10-02T06:03:03.803Z,78.30
2018-10-02T06:05:32.148Z,77.10
2018-10-02T06:08:00.519Z,74.70
2018-10-02T06:10:28.898Z,73.10
2018-10-02T06:12:57.256Z,70.90
2018-10-02T06:15:25.629Z,69.20
2018-10-02T06:17:54.059Z,68.80
2018-10-02T06:20:22.444Z,69.10
2018-10-02T06:22:50.808Z,68.90
2018-10-02T06:25:21.237Z,68.90
2018-10-02T06:27:49.603Z,70.10
2018-10-02T06:30:17.971Z,71.10
2018-10-02T06:32:46.393Z,71.50
2018-10-02T06:35:14.730Z,71.90
2018-10-02T06:37:43.112Z,72.50
2018-10-02T06:40:11.510Z,72.50
2018-10-02T06:42:39.932Z,72.40
2018-10-02T06:45:09.152Z,73.50
2018-10-02T06:47:37.531Z,74.40
2018-10-02T06:50:05.949Z,75.50
2018-10-02T06:52:34.640Z,75.70
2018-10-02T06:55:02.796Z,76.00
2018-10-02T06:57:31.178Z,74.80
2018-10-02T06:59:59.579Z,73.30
2018-10-02T07:02:28.054Z,74.20
2018-10-02T07:04:56.373Z,74.40
2018-10-02T07:07:24.788Z,75.00
2018-10-02T07:09:53.155Z,75.60
2018-10-02T07:12:21.564Z,75.00
2018-10-02T07:14:50.005Z,73.80
2018-10-02T07:17:18.363Z,70.90
2018-10-02T07:19:46.779Z,69.70
2018-10-02T07:22:15.165Z,65.90
2018-10-02T07:24:43.528Z,64.00
2018-10-02T07:27:12.095Z,63.10
2018-10-02T07:29:40.324Z,61.80
2018-10-02T07:32:08.701Z,62.00
2018-10-02T07:34:37.088Z,62.80
2018-10-02T07:37:05.656Z,62.10
2018-10-02T07:39:34.016Z,63.50
2018-10-02T07:42:02.405Z,64.10
2018-10-02T07:44:30.798Z,66.80
2018-10-02T07:46:59.225Z,68.70
2018-10-02T07:49:27.605Z,70.80
2018-10-02T07:51:55.997Z,72.40
2018-10-02T07:54:24.429Z,74.00
2018-10-02T07:56:52.876Z,74.20
2018-10-02T07:59:21.236Z,73.90
2018-10-02T08:01:49.633Z,74.80
2018-10-02T08:04:18.008Z,74.50
2018-10-02T08:06:46.474Z,73.50
2018-10-02T08:09:14.852Z,73.40
2018-10-02T08:11:43.289Z,73.70
2018-10-02T08:14:11.591Z,73.20
2018-10-02T08:16:40.123Z,72.70
2018-10-02T08:19:08.527Z,73.30
2018-10-02T08:21:36.905Z,72.80
2018-10-02T08:24:05.372Z,72.70
2018-10-02T08:26:33.863Z,70.70
2018-10-02T08:29:02.298Z,70.40
2018-10-02T08:31:30.683Z,69.40
2018-10-02T08:33:59.042Z,69.50
2018-10-02T08:36:27.523Z,69.10
2018-10-02T08:38:55.913Z,68.70
2018-10-02T08:41:24.276Z,68.30
2018-10-02T08:43:52.731Z,67.70
2018-10-02T08:46:21.072Z,67.50
2018-10-02T08:48:49.592Z,68.10
2018-10-02T08:51:17.998Z,67.80
2018-10-02T08:53:46.451Z,67.70
2018-10-02T08:56:14.802Z,68.30
2018-10-02T08:58:43.224Z,68.40
2018-10-02T09:01:11.688Z,68.80
2018-10-02T09:03:40.076Z,69.40
2018-10-02T09:06:08.474Z,70.40
2018-10-02T09:08:36.846Z,70.90
2018-10-02T09:11:05.235Z,70.40
2018-10-02T09:13:33.648Z,69.50
2018-10-02T09:16:02.240Z,70.20
2018-10-02T09:18:30.490Z,70.40
2018-10-02T09:20:58.817Z,71.40
2018-10-02T09:23:27.172Z,72.30
2018-10-02T09:25:55.551Z,73.40
2018-10-02T09:28:23.937Z,73.80
2018-10-02T09:30:57.669Z,74.80
2018-10-02T09:33:31.498Z,75.00
2018-10-02T09:36:05.029Z,75.80
2018-10-02T09:38:38.752Z,76.40
2018-10-02T09:41:12.407Z,75.00
2018-10-02T09:43:53.492Z,73.70
2018-10-02T09:46:22.396Z,72.20
2018-10-02T09:48:50.775Z,71.10
2018-10-02T09:51:19.152Z,68.80
2018-10-02T09:57:03.264Z,69.00
2018-10-02T09:59:36.732Z,68.90
2018-10-02T10:02:09.917Z,68.10
2018-10-02T10:04:38.312Z,68.10
2018-10-02T10:07:06.688Z,68.80
2018-10-02T10:09:35.139Z,69.80
2018-10-02T10:12:03.609Z,68.70
2018-10-02T10:14:31.945Z,69.10
2018-10-02T10:17:00.429Z,69.20
2018-10-02T10:19:28.741Z,69.10
2018-10-02T10:21:57.104Z,69.50
2018-10-02T10:24:32.552Z,69.00
2018-10-02T10:27:00.900Z,68.90
2018-10-02T10:29:29.292Z,69.00
2018-10-02T10:31:57.697Z,69.50
2018-10-02T10:34:26.093Z,70.10
2018-10-02T10:36:54.441Z,71.30
2018-10-02T10:39:22.782Z,72.50
2018-10-02T10:41:51.095Z,72.90
2018-10-02T10:44:19.532Z,73.20
2018-10-02T10:46:48.002Z,73.40
2018-10-02T10:49:16.375Z,72.50
2018-10-02T10:51:44.777Z,72.60
2018-10-02T10:54:13.068Z,72.50
2018-10-02T10:56:41.501Z,72.70
2018-10-02T10:59:09.879Z,74.50
2018-10-02T11:01:38.240Z,76.00
2018-10-02T11:04:06.817Z,76.40
2018-10-02T11:06:35.198Z,78.40
2018-10-02T11:09:05.212Z,77.50
2018-10-02T11:11:33.588Z,77.80
2018-10-02T11:14:02.011Z,77.10
2018-10-02T11:16:30.440Z,76.80
2018-10-02T11:18:58.808Z,77.60
2018-10-02T11:21:27.215Z,78.10
2018-10-02T11:23:55.694Z,77.80
2018-10-02T11:26:24.004Z,78.10
2018-10-02T11:28:52.520Z,78.60
2018-10-02T11:31:20.977Z,79.80
2018-10-02T11:33:49.369Z,80.00
2018-10-02T11:36:18.115Z,80.70
2018-10-02T11:38:46.476Z,81.00
2018-10-02T11:41:14.821Z,82.90
2018-10-02T11:43:43.329Z,83.70
2018-10-02T11:46:11.625Z,83.00
2018-10-02T11:48:40.136Z,83.00
2018-10-02T11:51:08.477Z,84.20
2018-10-02T11:53:36.808Z,85.00
2018-10-02T11:56:05.249Z,83.90
2018-10-02T11:58:33.664Z,84.00
2018-10-02T12:01:02.146Z,84.50
2018-10-02T12:03:30.492Z,82.70
2018-10-02T12:05:58.828Z,83.40
2018-10-02T12:08:27.268Z,83.20
2018-10-02T12:10:55.641Z,81.50
2018-10-02T12:13:24.112Z,81.60
2018-10-02T12:15:52.484Z,82.00
2018-10-02T12:18:20.816Z,81.30
2018-10-02T12:20:49.174Z,82.20
2018-10-02T12:23:17.551Z,81.70
2018-10-02T12:25:45.930Z,81.40
2018-10-02T12:28:14.303Z,81.90
2018-10-02T12:30:42.596Z,82.70
2018-10-02T12:33:10.951Z,82.80
2018-10-02T12:35:39.324Z,84.40
2018-10-02T12:38:07.736Z,84.40
2018-10-02T12:40:36.089Z,84.90
2018-10-02T12:43:04.503Z,84.40
2018-10-02T12:45:34.376Z,82.50
2018-10-02T12:48:02.780Z,81.80
2018-10-02T12:50:31.264Z,80.40
2018-10-02T12:52:59.660Z,78.80
2018-10-02T12:55:28.036Z,79.00
2018-10-02T12:57:56.420Z,77.50
2018-10-02T13:00:24.820Z,79.80
2018-10-02T13:02:53.203Z,80.70
2018-10-02T13:05:21.616Z,79.10
2018-10-02T13:07:49.993Z,80.70
2018-10-02T13:10:25.872Z,78.70
2018-10-02T13:12:54.211Z,80.60
2018-10-02T13:15:22.607Z,78.80
2018-10-02T13:17:51.056Z,77.70
2018-10-02T13:20:19.475Z,77.20
2018-10-02T13:22:47.798Z,78.50
2018-10-02T13:25:16.226Z,78.60
2018-10-02T13:27:44.603Z,79.50
2018-10-02T13:30:13.031Z,79.80
2018-10-02T13:32:41.425Z,80.40
2018-10-02T13:35:09.820Z,79.30
2018-10-02T13:37:38.263Z,79.10
2018-10-02T13:40:06.627Z,80.00
2018-10-02T13:42:35.097Z,80.80
2018-10-02T13:45:03.472Z,80.90
2018-10-02T13:47:32.912Z,81.20
2018-10-02T13:50:01.325Z,82.30
2018-10-02T13:52:29.673Z,81.00
2018-10-02T13:54:58.163Z,81.30
2018-10-02T13:57:26.526Z,82.70
2018-10-02T13:59:54.832Z,83.00
2018-10-02T14:02:23.197Z,82.90
2018-10-02T14:04:51.651Z,84.10
2018-10-02T14:07:20.042Z,82.80
2018-10-02T14:09:49.410Z,83.60
2018-10-02T14:12:17.769Z,84.70
2018-10-02T14:14:46.250Z,84.40
2018-10-02T14:17:14.630Z,84.40
2018-10-02T14:19:43.024Z,84.70
2018-10-02T14:22:11.425Z,83.40
2018-10-02T14:24:39.755Z,83.40
2018-10-02T14:27:08.188Z,81.80
2018-10-02T14:29:36.623Z,80.50
2018-10-02T14:32:04.972Z,81.10
2018-10-02T14:34:33.392Z,81.10
2018-10-02T14:37:01.788Z,79.60
2018-10-02T14:39:30.136Z,79.60
2018-10-02T14:41:58.546Z,79.40
2018-10-02T14:44:26.918Z,79.70
2018-10-02T14:46:55.324Z,80.10
2018-10-02T14:49:31.363Z,81.10
2018-10-02T14:51:59.691Z,80.40
2018-10-02T14:54:28.084Z,80.90
2018-10-02T14:56:56.536Z,81.60
2018-10-02T14:59:25.014Z,82.40
2018-10-02T15:01:53.360Z,82.60
2018-10-02T15:04:21.936Z,84.80
2018-10-02T15:06:50.313Z,84.00
2018-10-02T15:09:18.737Z,84.00
2018-10-02T15:11:47.123Z,84.40
2018-10-02T15:14:15.448Z,84.00
2018-10-02T15:16:43.836Z,84.40
2018-10-02T15:19:12.142Z,85.00
2018-10-02T15:21:40.524Z,85.80
2018-10-02T15:24:09.030Z,86.70
2018-10-02T15:26:37.276Z,87.30
2018-10-02T15:29:05.639Z,88.70
2018-10-02T15:31:34.014Z,90.00
2018-10-02T15:34:02.568Z,90.10
2018-10-02T15:36:30.992Z,90.40
2018-10-02T15:38:59.427Z,90.40
2018-10-02T15:41:27.839Z,90.60
2018-10-02T15:43:56.214Z,90.50
2018-10-02T15:46:24.562Z,90.70
2018-10-02T15:48:52.996Z,91.20
2018-10-02T15:51:21.374Z,91.70
2018-10-02T15:53:49.788Z,91.60
2018-10-02T15:56:18.176Z,91.70
2018-10-02T15:58:46.600Z,91.70
2018-10-02T16:01:15.000Z,91.80
2018-10-02T16:03:43.366Z,91.90
2018-10-02T16:06:11.820Z,91.90
2018-10-02T16:08:40.156Z,92.00
2018-10-02T16:11:08.580Z,92.10
2018-10-02T16:13:36.943Z,92.40
2018-10-02T16:16:05.284Z,92.20
2018-10-02T16:18:33.665Z,92.10
2018-10-02T16:21:02.050Z,92.30
2018-10-02T16:23:40.325Z,92.50
2018-10-02T16:26:08.748Z,92.60
2018-10-02T16:28:51.472Z,92.20
2018-10-02T16:31:19.857Z,92.50
2018-10-02T16:33:48.183Z,92.50
2018-10-02T16:36:16.516Z,92.80
2018-10-02T16:38:44.891Z,92.70
2018-10-02T16:41:13.255Z,92.80
2018-10-02T16:43:41.616Z,92.80
2018-10-02T16:46:09.996Z,92.60
2018-10-02T16:48:38.312Z,92.80
2018-10-02T16:51:06.773Z,92.90
2018-10-02T16:53:35.059Z,93.50
2018-10-02T16:56:03.468Z,93.10
2018-10-02T16:58:31.880Z,93.10
2018-10-02T17:01:00.244Z,93.20
2018-10-02T17:03:28.580Z,93.30
2018-10-02T17:05:56.886Z,93.20
2018-10-02T17:08:25.280Z,93.20
2018-10-02T17:10:53.648Z,93.30
2018-10-02T17:13:22.044Z,93.30
2018-10-02T17:15:50.451Z,93.20
2018-10-02T17:18:18.762Z,93.40
2018-10-02T17:20:47.187Z,93.50
2018-10-02T17:23:15.471Z,93.50
2018-10-02T17:25:43.883Z,93.50
2018-10-02T17:28:12.219Z,93.40
2018-10-02T17:30:40.649Z,93.30
2018-10-02T17:33:09.011Z,93.50
2018-10-02T17:35:37.357Z,93.60
2018-10-02T17:38:05.860Z,93.30
2018-10-02T17:40:34.278Z,93.50
2018-10-02T17:43:02.647Z,93.60
2018-10-02T17:45:31.043Z,93.60
2018-10-02T17:47:59.408Z,93.70
2018-10-02T17:50:27.803Z,93.60
2018-10-02T17:52:56.199Z,93.60
2018-10-02T17:55:24.569Z,93.70
2018-10-02T17:57:53.044Z,93.70
2018-10-02T18:00:21.438Z,93.80
2018-10-02T18:02:49.792Z,93.90
2018-10-02T18:05:18.214Z,94.10
2018-10-02T18:07:46.590Z,94.00
2018-10-02T18:10:15.038Z,94.00
2018-10-02T18:12:43.445Z,94.00
2018-10-02T18:15:11.792Z,94.10
2018-10-02T18:17:40.217Z,94.20
2018-10-02T18:20:08.656Z,94.20
2018-10-02T18:22:37.023Z,94.10
2018-10-02T18:25:13.211Z,94.10
2018-10-02T18:27:41.632Z,94.10
2018-10-02T18:30:10.045Z,94.00
2018-10-02T18:32:38.440Z,94.10
2018-10-02T18:35:06.752Z,94.00
2018-10-02T18:37:35.113Z,94.10
2018-10-02T18:40:03.548Z,94.30
2018-10-02T18:42:31.985Z,94.20
2018-10-02T18:45:00.416Z,94.20
2018-10-02T18:47:34.323Z,94.30
2018-10-02T18:50:02.766Z,94.30
2018-10-02T18:52:31.044Z,94.40
2018-10-02T18:54:59.436Z,94.40
2018-10-02T18:57:27.707Z,94.30
2018-10-02T18:59:56.144Z,94.40
2018-10-02T19:02:24.587Z,94.40
2018-10-02T19:04:53.163Z,94.50
2018-10-02T19:07:21.503Z,94.50
2018-10-02T19:09:49.853Z,94.50
2018-10-02T19:12:19.540Z,94.80
2018-10-02T19:14:47.891Z,94.50
2018-10-02T19:17:16.351Z,94.40
2018-10-02T19:19:50.130Z,94.60
2018-10-02T19:22:18.634Z,94.70
2018-10-02T19:24:47.016Z,94.70
2018-10-02T19:27:15.461Z,94.80
2018-10-02T19:29:43.829Z,94.90
2018-10-02T19:32:16.667Z,94.70
2018-10-02T19:34:45.241Z,94.70
2018-10-02T19:37:19.034Z,94.80
2018-10-02T19:39:47.440Z,94.70
2018-10-02T19:42:16.163Z,94.70
2018-10-02T19:44:44.562Z,95.10
2018-10-02T19:47:12.834Z,94.70
2018-10-02T19:49:41.303Z,94.60
2018-10-02T19:52:13.915Z,94.50
2018-10-02T19:54:42.606Z,94.50
2018-10-02T19:57:12.671Z,94.60
2018-10-02T19:59:41.119Z,94.70
2018-10-02T20:02:09.571Z,94.70
2018-10-02T20:04:38.391Z,94.70
2018-10-02T20:07:06.817Z,94.50
2018-10-02T20:09:35.168Z,94.80
2018-10-02T20:12:03.445Z,94.60
2018-10-02T20:14:31.857Z,94.50
2018-10-02T20:17:00.217Z,94.30
2018-10-02T20:19:28.665Z,94.40
2018-10-02T20:21:57.160Z,94.40
2018-10-02T20:24:25.548Z,94.60
2018-10-02T20:26:53.949Z,94.50
2018-10-02T20:29:22.228Z,94.30
2018-10-02T20:31:51.752Z,94.40
2018-10-02T20:34:20.128Z,94.40
2018-10-02T20:36:48.583Z,94.40
2018-10-02T20:39:16.850Z,94.50
2018-10-02T20:41:45.261Z,94.40
2018-10-02T20:44:13.712Z,94.40
2018-10-02T20:46:42.091Z,94.70
2018-10-02T20:49:10.502Z,94.70
2018-10-02T20:51:38.776Z,94.80
2018-10-02T20:54:07.160Z,94.90
2018-10-02T20:56:35.576Z,95.00
2018-10-02T20:59:03.893Z,95.00
2018-10-02T21:01:32.314Z,95.10
2018-10-02T21:04:00.691Z,95.10
2018-10-02T21:06:29.116Z,95.00
2018-10-02T21:08:57.547Z,95.00
2018-10-02T21:11:26.850Z,95.10
2018-10-02T21:13:55.231Z,95.10
2018-10-02T21:16:23.568Z,95.20
2018-10-02T21:18:51.900Z,95.30
2018-10-02T21:21:20.244Z,95.30
2018-10-02T21:23:48.637Z,95.40
2018-10-02T21:26:16.983Z,95.50
2018-10-02T21:28:45.387Z,95.80
2018-10-02T21:31:13.738Z,95.50
2018-10-02T21:33:42.161Z,95.50
2018-10-02T21:36:10.604Z,95.60
2018-10-02T21:38:38.997Z,95.60
2018-10-02T21:41:07.421Z,95.50
2018-10-02T21:43:35.804Z,95.60
2018-10-02T21:46:04.119Z,95.40
2018-10-02T21:48:32.542Z,95.50
2018-10-02T21:51:00.842Z,95.50
2018-10-02T21:53:29.224Z,95.50
2018-10-02T21:55:57.599Z,95.60
2018-10-02T21:58:26.014Z,95.50
2018-10-02T22:00:58.612Z,95.30
2018-10-02T22:03:26.987Z,95.40
2018-10-02T22:05:55.334Z,95.40
2018-10-02T22:08:23.758Z,95.30
2018-10-02T22:10:52.184Z,95.40
2018-10-02T22:13:20.638Z,95.30
2018-10-02T22:15:48.956Z,95.30
2018-10-02T22:18:17.359Z,95.40
2018-10-02T22:20:45.764Z,95.30
2018-10-02T22:23:14.199Z,95.30
2018-10-02T22:25:42.641Z,95.30
2018-10-02T22:28:11.043Z,95.30
2018-10-02T22:30:39.471Z,95.40
2018-10-02T22:33:07.920Z,95.40
2018-10-02T22:35:36.265Z,95.30
2018-10-02T22:38:04.576Z,95.30
2018-10-02T22:40:32.908Z,95.20
2018-10-02T22:43:01.317Z,95.00
2018-10-02T22:45:29.720Z,95.10
2018-10-02T22:47:58.062Z,95.00
2018-10-02T22:50:26.608Z,95.00
2018-10-02T22:52:55.042Z,94.80
2018-10-02T22:55:23.417Z,95.00
2018-10-02T22:57:51.835Z,94.70
2018-10-02T23:00:20.179Z,94.80
2018-10-02T23:02:48.589Z,94.70
2018-10-02T23:05:16.942Z,94.60
2018-10-02T23:07:45.308Z,94.60
2018-10-02T23:10:13.702Z,94.70
2018-10-02T23:12:42.114Z,94.80
2018-10-02T23:15:10.660Z,94.80
2018-10-02T23:17:39.218Z,94.80
2018-10-02T23:20:08.564Z,94.80
2018-10-02T23:22:36.965Z,94.80
2018-10-02T23:25:05.352Z,94.70
2018-10-02T23:27:33.774Z,94.80
2018-10-02T23:30:02.172Z,94.80
2018-10-02T23:32:30.604Z,94.80
2018-10-02T23:34:59.020Z,94.90
2018-10-02T23:37:27.450Z,94.90
2018-10-02T23:39:55.803Z,94.70
2018-10-02T23:42:24.175Z,94.90
2018-10-02T23:44:52.540Z,94.70
2018-10-02T23:47:20.984Z,94.80
2018-10-02T23:49:49.328Z,94.80
2018-10-02T23:52:17.742Z,94.80
2018-10-02T23:54:46.136Z,94.90
2018-10-02T23:57:14.588Z,94.90
2018-10-02T23:59:43.039Z,95.00
